createdAt,value
2023-01-19T00:01:45.889Z,98030.38
2023-01-19T00:04:12.313Z,98028.63
2023-01-19T00:06:38.668Z,98030.41
2023-01-19T00:09:05.053Z,98033.00
2023-01-19T00:11:31.428Z,98031.28
2023-01-19T00:13:58.829Z,98031.38
2023-01-19T00:16:25.234Z,98027.06
2023-01-19T00:18:52.312Z,98025.31
2023-01-19T00:21:19.182Z,98026.19
2023-01-19T00:23:48.297Z,98037.63
2023-01-19T00:26:16.393Z,98039.50
2023-01-19T00:28:43.654Z,98039.63
2023-01-19T00:31:10.269Z,98044.00
2023-01-19T00:33:37.433Z,98045.84
2023-01-19T00:36:04.411Z,98047.66
2023-01-19T00:38:30.785Z,98045.09
2023-01-19T00:40:57.197Z,98053.84
2023-01-19T00:43:23.637Z,98050.41
2023-01-19T00:45:50.172Z,98055.69
2023-01-19T00:48:16.633Z,98061.00
2023-01-19T00:50:42.955Z,98049.66
2023-01-19T00:53:12.344Z,98076.84
2023-01-19T00:55:38.681Z,98067.28
2023-01-19T00:58:06.603Z,98074.22
2023-01-19T01:00:32.949Z,98074.25
2023-01-19T01:02:59.811Z,98076.91
2023-01-19T01:05:26.391Z,98073.44
2023-01-19T01:07:52.752Z,98081.38
2023-01-19T01:10:23.714Z,98080.53
2023-01-19T01:13:19.840Z,98082.28
2023-01-19T01:15:37.048Z,98085.84
2023-01-19T01:18:03.440Z,98085.00
2023-01-19T01:20:31.086Z,98080.72
2023-01-19T01:22:57.564Z,98081.63
2023-01-19T01:25:25.155Z,98086.91
2023-01-19T01:27:52.093Z,98090.41
2023-01-19T01:30:18.630Z,98094.84
2023-01-19T01:32:44.963Z,98098.38
2023-01-19T01:35:11.775Z,98096.66
2023-01-19T01:37:38.483Z,98094.09
2023-01-19T01:40:06.040Z,98105.44
2023-01-19T01:42:33.186Z,98094.09
2023-01-19T01:45:00.761Z,98094.09
2023-01-19T01:47:42.643Z,98094.03
2023-01-19T01:50:17.847Z,98093.13
2023-01-19T01:53:06.458Z,98094.91
2023-01-19T01:55:35.893Z,98099.31
2023-01-19T01:58:03.838Z,98095.81
2023-01-19T02:00:50.939Z,98102.78
2023-01-19T02:07:05.568Z,98113.22
2023-01-19T02:09:51.690Z,98118.44
2023-01-19T02:12:36.503Z,98114.94
2023-01-19T02:15:03.007Z,98121.91
2023-01-19T02:17:29.366Z,98117.50
2023-01-19T02:19:56.221Z,98116.63
2023-01-19T02:22:22.594Z,98114.00
2023-01-19T02:24:50.056Z,98113.16
2023-01-19T02:27:16.957Z,98107.91
2023-01-19T02:29:43.415Z,98121.94
2023-01-19T02:32:09.752Z,98119.38
2023-01-19T02:34:36.124Z,98129.84
2023-01-19T02:37:12.926Z,98135.97
2023-01-19T02:39:42.969Z,98140.34
2023-01-19T02:42:12.300Z,98136.00
2023-01-19T02:44:39.573Z,98136.84
2023-01-19T02:47:05.996Z,98129.03
2023-01-19T02:49:32.309Z,98117.69
2023-01-19T02:52:00.646Z,98127.25
2023-01-19T02:54:45.867Z,98119.44
2023-01-19T02:57:32.476Z,98122.09
2023-01-19T03:00:10.137Z,98129.97
2023-01-19T03:02:55.140Z,98148.31
2023-01-19T03:05:49.556Z,98126.53
2023-01-19T03:08:26.917Z,98136.13
2023-01-19T03:11:07.459Z,98139.59
2023-01-19T03:13:45.998Z,98139.63
2023-01-19T03:16:18.520Z,98139.59
2023-01-19T03:18:47.497Z,98137.88
2023-01-19T03:21:15.087Z,98135.25
2023-01-19T03:23:42.964Z,98141.34
2023-01-19T03:26:11.420Z,98148.34
2023-01-19T03:28:39.084Z,98148.34
2023-01-19T03:31:11.213Z,98151.88
2023-01-19T03:33:38.921Z,98155.34
2023-01-19T03:36:08.706Z,98157.97
2023-01-19T03:38:37.136Z,98158.84
2023-01-19T03:41:07.700Z,98160.59
2023-01-19T03:43:36.054Z,98161.47
2023-01-19T03:46:03.610Z,98169.31
2023-01-19T03:48:30.662Z,98177.13
2023-01-19T03:50:57.040Z,98165.81
2023-01-19T03:53:23.369Z,98165.81
2023-01-19T03:55:50.698Z,98169.31
2023-01-19T03:58:17.379Z,98170.16
2023-01-19T04:00:43.710Z,98164.88
2023-01-19T04:03:13.030Z,98171.03
2023-01-19T04:05:39.707Z,98164.03
2023-01-19T04:08:06.173Z,98163.19
2023-01-19T04:10:32.487Z,98169.25
2023-01-19T04:12:59.595Z,98178.84
2023-01-19T04:15:26.398Z,98185.81
2023-01-19T04:17:59.941Z,98181.44
2023-01-19T04:20:28.170Z,98179.72
2023-01-19T04:22:55.135Z,98172.75
2023-01-19T04:25:21.685Z,98172.72
2023-01-19T04:27:51.187Z,98168.38
2023-01-19T04:30:17.696Z,98159.66
2023-01-19T04:32:44.283Z,98170.97
2023-01-19T04:35:10.744Z,98171.84
2023-01-19T04:37:37.225Z,98166.59
2023-01-19T04:40:03.697Z,98158.75
2023-01-19T04:42:30.114Z,98157.88
2023-01-19T04:44:56.450Z,98162.28
2023-01-19T04:47:22.779Z,98168.38
2023-01-19T04:49:49.118Z,98171.00
2023-01-19T04:52:15.450Z,98162.28
2023-01-19T04:54:41.800Z,98170.97
2023-01-19T04:57:08.337Z,98175.34
2023-01-19T04:59:34.667Z,98169.25
2023-01-19T05:02:01.042Z,98167.50
2023-01-19T05:04:27.520Z,98170.97
2023-01-19T05:06:54.323Z,98169.22
2023-01-19T05:09:20.637Z,98167.47
2023-01-19T05:11:47.141Z,98171.00
2023-01-19T05:14:13.479Z,98168.38
2023-01-19T05:16:39.816Z,98164.03
2023-01-19T05:19:06.182Z,98163.13
2023-01-19T05:21:32.499Z,98166.66
2023-01-19T05:23:59.080Z,98180.59
2023-01-19T05:26:25.412Z,98170.13
2023-01-19T05:28:51.725Z,98166.63
2023-01-19T05:31:19.599Z,98171.88
2023-01-19T05:33:46.024Z,98162.28
2023-01-19T05:36:12.391Z,98161.41
2023-01-19T05:38:38.884Z,98169.31
2023-01-19T05:41:05.277Z,98160.59
2023-01-19T05:43:31.632Z,98164.06
2023-01-19T05:45:57.955Z,98161.47
2023-01-19T05:48:24.266Z,98161.47
2023-01-19T05:50:50.580Z,98157.97
2023-01-19T05:53:17.175Z,98160.56
2023-01-19T05:55:43.529Z,98157.97
2023-01-19T05:58:09.886Z,98168.44
2023-01-19T06:00:36.204Z,98164.97
2023-01-19T06:03:03.224Z,98162.34
2023-01-19T06:05:29.934Z,98163.19
2023-01-19T06:07:58.854Z,98172.75
2023-01-19T06:10:25.279Z,98167.56
2023-01-19T06:12:52.445Z,98171.91
2023-01-19T06:15:18.790Z,98171.00
2023-01-19T06:17:45.148Z,98178.00
2023-01-19T06:20:14.042Z,98184.94
2023-01-19T06:22:40.415Z,98182.31
2023-01-19T06:25:06.907Z,98177.97
2023-01-19T06:27:33.240Z,98180.59
2023-01-19T06:29:59.599Z,98182.31
2023-01-19T06:32:25.970Z,98185.78
2023-01-19T06:34:54.089Z,98201.47
2023-01-19T06:37:20.658Z,98208.44
2023-01-19T06:39:46.986Z,98211.91
2023-01-19T06:42:13.406Z,98210.16
2023-01-19T06:44:43.386Z,98217.13
2023-01-19T06:47:15.231Z,98218.84
2023-01-19T06:49:42.449Z,98223.16
2023-01-19T06:52:12.353Z,98230.97
2023-01-19T06:54:38.686Z,98218.75
2023-01-19T06:57:05.130Z,98223.09
2023-01-19T06:59:31.742Z,98225.69
2023-01-19T07:01:59.044Z,98230.88
2023-01-19T07:04:27.032Z,98229.13
2023-01-19T07:06:53.710Z,98235.25
2023-01-19T07:09:20.535Z,98224.81
2023-01-19T07:11:47.399Z,98233.53
2023-01-19T07:14:14.168Z,98237.00
2023-01-19T07:16:40.572Z,98235.28
2023-01-19T07:19:07.201Z,98237.91
2023-01-19T07:21:33.712Z,98234.47
2023-01-19T07:24:00.097Z,98240.56
2023-01-19T07:26:28.010Z,98235.38
2023-01-19T07:28:54.433Z,98228.44
2023-01-19T07:31:21.050Z,98235.44
2023-01-19T07:33:47.445Z,98231.97
2023-01-19T07:36:13.907Z,98235.47
2023-01-19T07:38:40.263Z,98237.22
2023-01-19T07:41:07.650Z,98238.13
2023-01-19T07:43:34.002Z,98246.81
2023-01-19T07:46:01.673Z,98249.47
2023-01-19T07:48:28.619Z,98259.06
2023-01-19T07:50:59.842Z,98252.94
2023-01-19T07:53:26.187Z,98256.44
2023-01-19T07:55:56.523Z,98250.31
2023-01-19T07:58:26.544Z,98256.41
2023-01-19T08:00:52.946Z,98259.03
2023-01-19T08:03:19.320Z,98259.91
2023-01-19T08:05:49.741Z,98266.00
2023-01-19T08:08:16.098Z,98256.41
2023-01-19T08:10:42.412Z,98270.34
2023-01-19T08:13:08.807Z,98274.69
2023-01-19T08:15:35.165Z,98276.41
2023-01-19T08:18:04.899Z,98272.91
2023-01-19T08:20:32.114Z,98276.38
2023-01-19T08:23:02.863Z,98268.47
2023-01-19T08:25:33.850Z,98271.09
2023-01-19T08:28:00.588Z,98275.44
2023-01-19T08:30:27.298Z,98276.28
2023-01-19T08:32:54.744Z,98272.72
2023-01-19T08:35:22.650Z,98285.78
2023-01-19T08:37:49.310Z,98272.66
2023-01-19T08:40:15.687Z,98279.53
2023-01-19T08:42:42.085Z,98285.66
2023-01-19T08:45:09.285Z,98286.44
2023-01-19T08:47:35.658Z,98282.06
2023-01-19T08:50:02.173Z,98286.41
2023-01-19T08:52:29.465Z,98292.47
2023-01-19T08:54:55.779Z,98301.13
2023-01-19T08:57:22.124Z,98300.22
2023-01-19T08:59:48.463Z,98293.13
2023-01-19T09:02:14.887Z,98288.69
2023-01-19T09:04:41.557Z,98288.63
2023-01-19T09:07:07.975Z,98291.94
2023-01-19T09:09:37.773Z,98283.88
2023-01-19T09:12:04.320Z,98295.13
2023-01-19T09:14:30.707Z,98293.13
2023-01-19T09:16:57.058Z,98289.25
2023-01-19T09:19:23.470Z,98297.56
2023-01-19T09:21:50.819Z,98297.28
2023-01-19T09:24:17.163Z,98299.84
2023-01-19T09:26:43.506Z,98296.16
2023-01-19T09:29:09.835Z,98295.03
2023-01-19T09:31:36.941Z,98299.28
2023-01-19T09:34:03.268Z,98299.16
2023-01-19T09:36:30.311Z,98302.19
2023-01-19T09:38:56.701Z,98308.66
2023-01-19T09:41:25.099Z,98300.03
2023-01-19T09:43:54.578Z,98297.13
2023-01-19T09:46:24.480Z,98297.38
2023-01-19T09:48:58.553Z,98301.13
2023-01-19T09:51:29.752Z,98290.63
2023-01-19T09:54:02.169Z,98300.47
2023-01-19T09:56:29.927Z,98295.91
2023-01-19T09:58:56.280Z,98284.34
2023-01-19T10:01:35.535Z,98289.50
2023-01-19T10:04:20.988Z,98275.63
2023-01-19T10:06:48.691Z,98272.09
2023-01-19T10:09:24.040Z,98275.50
2023-01-19T10:12:17.883Z,98281.88
2023-01-19T10:14:56.745Z,98275.34
2023-01-19T10:17:35.151Z,98271.88
2023-01-19T10:20:02.223Z,98283.47
2023-01-19T10:22:28.881Z,98282.69
2023-01-19T10:25:07.930Z,98286.09
2023-01-19T10:27:35.707Z,98276.28
2023-01-19T10:30:02.131Z,98275.22
2023-01-19T10:32:34.270Z,98278.38
2023-01-19T10:35:01.042Z,98279.47
2023-01-19T10:37:27.486Z,98280.34
2023-01-19T10:39:55.728Z,98275.75
2023-01-19T10:42:22.203Z,98275.63
2023-01-19T10:44:49.277Z,98271.94
2023-01-19T10:47:17.237Z,98274.53
2023-01-19T10:49:44.612Z,98270.97
2023-01-19T10:52:41.281Z,98274.34
2023-01-19T10:55:08.067Z,98269.91
2023-01-19T10:57:39.059Z,98263.47
2023-01-19T11:00:06.430Z,98269.78
2023-01-19T11:02:33.403Z,98270.00
2023-01-19T11:05:00.996Z,98269.78
2023-01-19T11:07:32.598Z,98271.47
2023-01-19T11:10:21.606Z,98264.34
2023-01-19T11:12:47.939Z,98267.84
2023-01-19T11:15:31.805Z,98259.88
2023-01-19T11:17:58.425Z,98264.06
2023-01-19T11:20:29.899Z,98260.38
2023-01-19T11:23:07.219Z,98257.19
2023-01-19T11:25:35.511Z,98254.53
2023-01-19T11:28:03.155Z,98259.97
2023-01-19T11:30:30.307Z,98256.34
2023-01-19T11:32:56.747Z,98258.91
2023-01-19T11:35:39.950Z,98262.16
2023-01-19T11:38:12.394Z,98269.81
2023-01-19T11:40:39.215Z,98264.41
2023-01-19T11:43:05.650Z,98272.28
2023-01-19T11:45:33.053Z,98279.63
2023-01-19T11:48:03.022Z,98271.69
2023-01-19T11:50:41.266Z,98268.00
2023-01-19T11:53:15.178Z,98269.69
2023-01-19T11:55:51.288Z,98271.19
2023-01-19T11:58:18.514Z,98261.50
2023-01-19T12:00:48.457Z,98263.38
2023-01-19T12:03:30.588Z,98261.41
2023-01-19T12:06:00.331Z,98274.72
2023-01-19T12:08:33.173Z,98279.03
2023-01-19T12:11:00.770Z,98264.94
2023-01-19T12:13:28.008Z,98274.53
2023-01-19T12:15:57.953Z,98282.25
2023-01-19T12:18:28.062Z,98272.41
2023-01-19T12:20:55.824Z,98270.72
2023-01-19T12:23:31.425Z,98267.03
2023-01-19T12:26:03.039Z,98270.97
2023-01-19T12:28:40.360Z,98265.75
2023-01-19T12:31:08.073Z,98273.63
2023-01-19T12:33:38.490Z,98270.84
2023-01-19T12:36:06.718Z,98275.03
2023-01-19T12:38:52.846Z,98271.38
2023-01-19T12:41:33.270Z,98268.56
2023-01-19T12:44:11.993Z,98263.03
2023-01-19T12:46:41.061Z,98270.00
2023-01-19T12:49:27.421Z,98258.47
2023-01-19T12:51:56.022Z,98249.63
2023-01-19T12:54:31.558Z,98251.50
2023-01-19T12:57:04.743Z,98253.00
2023-01-19T12:59:31.291Z,98252.16
2023-01-19T13:02:16.283Z,98259.06
2023-01-19T13:05:02.623Z,98257.28
2023-01-19T13:07:28.966Z,98251.25
2023-01-19T13:09:55.292Z,98247.81
2023-01-19T13:12:22.785Z,98255.81
2023-01-19T13:14:50.769Z,98240.72
2023-01-19T13:17:28.040Z,98244.88
2023-01-19T13:20:00.602Z,98245.59
2023-01-19T13:22:45.871Z,98239.59
2023-01-19T13:25:13.468Z,98234.94
2023-01-19T13:27:40.738Z,98235.50
2023-01-19T13:30:16.094Z,98238.25
2023-01-19T13:32:42.685Z,98236.06
2023-01-19T13:35:15.360Z,98243.44
2023-01-19T13:37:43.343Z,98241.16
2023-01-19T13:40:30.313Z,98236.75
2023-01-19T13:42:56.901Z,98241.63
2023-01-19T13:45:33.752Z,98237.16
2023-01-19T13:48:02.571Z,98241.63
2023-01-19T13:50:30.417Z,98242.91
2023-01-19T13:52:58.857Z,98249.72
2023-01-19T13:55:26.553Z,98248.72
2023-01-19T13:57:54.203Z,98247.88
2023-01-19T14:00:22.212Z,98252.69
2023-01-19T14:02:57.010Z,98247.41
2023-01-19T14:05:23.423Z,98251.00
2023-01-19T14:07:59.641Z,98249.13
2023-01-19T14:10:26.026Z,98254.41
2023-01-19T14:12:59.965Z,98261.25
2023-01-19T14:15:26.898Z,98262.38
2023-01-19T14:18:09.626Z,98259.66
2023-01-19T14:20:39.189Z,98273.09
2023-01-19T14:23:06.148Z,98275.72
2023-01-19T14:25:33.844Z,98275.00
2023-01-19T14:28:18.717Z,98279.66
2023-01-19T14:30:59.044Z,98278.03
2023-01-19T14:33:42.089Z,98277.13
2023-01-19T14:36:11.347Z,98273.53
2023-01-19T14:38:54.537Z,98262.22
2023-01-19T14:41:44.003Z,98267.75
2023-01-19T14:44:11.356Z,98269.69
2023-01-19T14:46:38.384Z,98265.50
2023-01-19T14:49:06.261Z,98275.13
2023-01-19T14:51:32.813Z,98279.56
2023-01-19T14:54:01.363Z,98273.56
2023-01-19T14:56:29.634Z,98271.72
2023-01-19T14:58:59.515Z,98268.41
2023-01-19T15:01:28.538Z,98268.44
2023-01-19T15:03:58.116Z,98274.81
2023-01-19T15:06:25.336Z,98274.91
2023-01-19T15:08:53.516Z,98273.25
2023-01-19T15:11:25.077Z,98276.75
2023-01-19T15:13:51.700Z,98276.81
2023-01-19T15:16:18.486Z,98281.38
2023-01-19T15:18:44.909Z,98280.66
2023-01-19T15:21:14.130Z,98290.53
2023-01-19T15:23:41.121Z,98284.44
2023-01-19T15:26:07.751Z,98289.72
2023-01-19T15:28:34.177Z,98289.63
2023-01-19T15:31:00.539Z,98295.13
2023-01-19T15:33:30.482Z,98296.94
2023-01-19T15:35:56.821Z,98304.91
2023-01-19T15:38:23.817Z,98309.25
2023-01-19T15:40:51.654Z,98311.06
2023-01-19T15:43:18.327Z,98321.72
2023-01-19T15:45:44.707Z,98315.81
2023-01-19T15:48:11.689Z,98316.69
2023-01-19T15:50:39.954Z,98320.22
2023-01-19T15:53:06.791Z,98328.06
2023-01-19T15:55:33.404Z,98324.59
2023-01-19T15:58:02.551Z,98321.88
2023-01-19T16:00:30.168Z,98325.41
2023-01-19T16:02:56.700Z,98317.50
2023-01-19T16:05:30.546Z,98321.03
2023-01-19T16:08:04.011Z,98330.53
2023-01-19T16:10:30.497Z,98326.97
2023-01-19T16:12:56.902Z,98332.41
2023-01-19T16:15:23.690Z,98334.16
2023-01-19T16:17:50.277Z,98339.34
2023-01-19T16:20:18.380Z,98337.63
2023-01-19T16:22:44.775Z,98343.81
2023-01-19T16:25:11.625Z,98342.94
2023-01-19T16:27:38.114Z,98340.09
2023-01-19T16:30:05.097Z,98344.44
2023-01-19T16:32:35.191Z,98351.41
2023-01-19T16:35:01.545Z,98343.69
2023-01-19T16:37:28.137Z,98345.50
2023-01-19T16:39:54.551Z,98346.31
2023-01-19T16:42:20.933Z,98358.63
2023-01-19T16:44:47.409Z,98355.34
2023-01-19T16:47:13.892Z,98355.53
2023-01-19T16:49:40.268Z,98358.13
2023-01-19T16:52:07.233Z,98367.88
2023-01-19T16:54:33.813Z,98367.94
2023-01-19T16:57:00.327Z,98366.22
2023-01-19T16:59:27.201Z,98368.78
2023-01-19T17:01:54.868Z,98370.59
2023-01-19T17:04:21.963Z,98371.59
2023-01-19T17:06:48.435Z,98363.72
2023-01-19T17:09:14.803Z,98364.84
2023-01-19T17:11:41.268Z,98365.56
2023-01-19T17:14:09.098Z,98368.13
2023-01-19T17:16:35.770Z,98359.38
2023-01-19T17:19:02.908Z,98366.44
2023-01-19T17:21:29.558Z,98367.28
2023-01-19T17:23:56.867Z,98375.19
2023-01-19T17:26:25.712Z,98376.97
2023-01-19T17:28:52.336Z,98381.31
2023-01-19T17:31:20.403Z,98371.66
2023-01-19T17:33:47.881Z,98365.50
2023-01-19T17:36:16.426Z,98371.66
2023-01-19T17:38:43.094Z,98369.03
2023-01-19T17:41:14.068Z,98368.28
2023-01-19T17:43:40.491Z,98363.97
2023-01-19T17:46:07.125Z,98380.59
2023-01-19T17:48:33.502Z,98381.50
2023-01-19T17:51:06.917Z,98382.28
2023-01-19T17:53:34.045Z,98376.94
2023-01-19T17:56:04.542Z,98390.97
2023-01-19T17:58:31.513Z,98380.50
2023-01-19T18:00:58.196Z,98382.28
2023-01-19T18:03:24.660Z,98390.16
2023-01-19T18:05:54.703Z,98393.56
2023-01-19T18:08:21.147Z,98391.75
2023-01-19T18:10:57.475Z,98392.69
2023-01-19T18:13:24.250Z,98392.78
2023-01-19T18:15:50.657Z,98390.91
2023-01-19T18:18:17.544Z,98389.13
2023-01-19T18:20:44.644Z,98397.19
2023-01-19T18:23:11.604Z,98399.88
2023-01-19T18:25:39.736Z,98404.31
2023-01-19T18:28:09.258Z,98406.94
2023-01-19T18:30:36.259Z,98410.50
2023-01-19T18:33:02.864Z,98411.44
2023-01-19T18:35:29.401Z,98411.41
2023-01-19T18:37:56.993Z,98407.97
2023-01-19T18:40:23.963Z,98412.41
2023-01-19T18:42:50.616Z,98417.66
2023-01-19T18:45:17.242Z,98418.56
2023-01-19T18:47:43.594Z,98416.78
2023-01-19T18:50:10.339Z,98414.16
2023-01-19T18:52:36.687Z,98418.50
2023-01-19T18:55:03.100Z,98419.41
2023-01-19T18:57:29.482Z,98421.16
2023-01-19T18:59:55.885Z,98417.66
2023-01-19T19:02:24.323Z,98429.00
2023-01-19T19:04:50.667Z,98427.22
2023-01-19T19:07:17.111Z,98426.31
2023-01-19T19:09:43.587Z,98428.00
2023-01-19T19:12:10.104Z,98434.19
2023-01-19T19:14:36.648Z,98428.09
2023-01-19T19:17:03.064Z,98435.13
2023-01-19T19:19:29.404Z,98435.84
2023-01-19T19:21:56.697Z,98438.47
2023-01-19T19:24:23.128Z,98434.13
2023-01-19T19:26:49.631Z,98435.84
2023-01-19T19:29:16.037Z,98433.16
2023-01-19T19:31:42.947Z,98430.56
2023-01-19T19:34:12.351Z,98430.56
2023-01-19T19:36:39.539Z,98435.78
2023-01-19T19:39:06.283Z,98437.59
2023-01-19T19:41:32.758Z,98439.31
2023-01-19T19:43:59.283Z,98437.53
2023-01-19T19:46:26.379Z,98445.44
2023-01-19T19:48:53.251Z,98443.72
2023-01-19T19:51:24.031Z,98454.25
2023-01-19T19:53:51.844Z,98446.38
2023-01-19T19:56:21.146Z,98451.66
2023-01-19T19:58:47.662Z,98447.31
2023-01-19T20:01:21.298Z,98450.78
2023-01-19T20:03:48.177Z,98456.94
2023-01-19T20:06:15.809Z,98455.13
2023-01-19T20:08:42.158Z,98466.50
2023-01-19T20:11:08.662Z,98465.59
2023-01-19T20:13:35.881Z,98467.38
2023-01-19T20:16:06.585Z,98469.06
2023-01-19T20:18:33.926Z,98470.81
2023-01-19T20:21:00.467Z,98475.19
2023-01-19T20:23:27.185Z,98463.81
2023-01-19T20:25:53.698Z,98473.41
2023-01-19T20:28:20.166Z,98479.56
2023-01-19T20:30:46.652Z,98480.41
2023-01-19T20:33:13.122Z,98485.66
2023-01-19T20:35:39.508Z,98490.06
2023-01-19T20:38:05.979Z,98483.88
2023-01-19T20:40:32.329Z,98482.97
2023-01-19T20:42:58.689Z,98480.31
2023-01-19T20:45:25.996Z,98492.63
2023-01-19T20:47:53.214Z,98488.19
2023-01-19T20:50:19.847Z,98493.47
2023-01-19T20:52:46.249Z,98486.44
2023-01-19T20:55:14.095Z,98490.84
2023-01-19T20:57:40.689Z,98497.78
2023-01-19T21:00:07.322Z,98496.84
2023-01-19T21:02:33.724Z,98495.09
2023-01-19T21:05:00.149Z,98501.25
2023-01-19T21:07:26.621Z,98506.34
2023-01-19T21:09:52.992Z,98506.44
2023-01-19T21:12:21.414Z,98512.56
2023-01-19T21:14:47.895Z,98512.53
2023-01-19T21:17:14.321Z,98520.47
2023-01-19T21:19:40.745Z,98523.13
2023-01-19T21:22:07.138Z,98524.03
2023-01-19T21:24:33.544Z,98525.75
2023-01-19T21:27:00.046Z,98523.13
2023-01-19T21:29:26.534Z,98529.25
2023-01-19T21:31:53.068Z,98536.28
2023-01-19T21:34:19.578Z,98538.88
2023-01-19T21:36:45.947Z,98530.09
2023-01-19T21:39:12.493Z,98529.25
2023-01-19T21:41:40.272Z,98534.56
2023-01-19T21:44:06.718Z,98530.03
2023-01-19T21:46:34.073Z,98529.19
2023-01-19T21:49:01.803Z,98535.38
2023-01-19T21:51:28.923Z,98539.59
2023-01-19T21:54:00.157Z,98540.47
2023-01-19T21:56:30.495Z,98543.94
2023-01-19T21:58:57.314Z,98551.78
2023-01-19T22:01:24.240Z,98547.25
2023-01-19T22:03:54.949Z,98552.63
2023-01-19T22:06:21.937Z,98550.81
2023-01-19T22:08:48.306Z,98560.59
2023-01-19T22:11:16.318Z,98558.88
2023-01-19T22:13:42.773Z,98551.63
2023-01-19T22:16:13.471Z,98560.25
2023-01-19T22:18:41.427Z,98564.63
2023-01-19T22:21:12.342Z,98558.53
2023-01-19T22:23:38.800Z,98567.28
2023-01-19T22:26:05.185Z,98562.97
2023-01-19T22:28:31.987Z,98562.97
2023-01-19T22:31:05.976Z,98568.94
2023-01-19T22:33:32.708Z,98569.91
2023-01-19T22:36:28.349Z,98570.00
2023-01-19T22:39:06.357Z,98566.34
2023-01-19T22:41:32.785Z,98571.44
2023-01-19T22:44:00.666Z,98578.53
2023-01-19T22:46:28.330Z,98574.94
2023-01-19T22:48:55.331Z,98576.91
2023-01-19T22:51:22.225Z,98571.63
2023-01-19T22:53:48.638Z,98571.53
2023-01-19T22:56:16.345Z,98567.16
2023-01-19T22:58:45.766Z,98566.34
2023-01-19T23:01:13.394Z,98571.47
2023-01-19T23:03:40.274Z,98566.19
2023-01-19T23:06:11.130Z,98561.69
2023-01-19T23:08:38.016Z,98560.72
2023-01-19T23:11:11.993Z,98563.38
2023-01-19T23:13:38.699Z,98568.53
2023-01-19T23:16:05.432Z,98564.13
2023-01-19T23:18:32.206Z,98567.75
2023-01-19T23:21:05.842Z,98569.41
2023-01-19T23:23:32.829Z,98565.09
2023-01-19T23:26:07.426Z,98565.13
2023-01-19T23:28:34.369Z,98565.13
2023-01-19T23:31:01.374Z,98556.16
2023-01-19T23:33:27.847Z,98561.44
2023-01-19T23:35:57.121Z,98552.72
2023-01-19T23:38:23.567Z,98567.75
2023-01-19T23:40:50.039Z,98565.00
2023-01-19T23:43:16.461Z,98567.78
2023-01-19T23:45:42.824Z,98565.25
2023-01-19T23:48:09.265Z,98560.94
2023-01-19T23:50:38.840Z,98565.44
2023-01-19T23:53:05.288Z,98572.50
2023-01-19T23:55:31.735Z,98568.09
2023-01-19T23:57:58.143Z,98565.41
